sensor_id;sensor_type;location;lat;lon;timestamp;pressure;altitude;pressure_sealevel;temperature;humidity
84020;BME280;74102;49.084;13.694;2023-12-14T00:01:11;92103.34;;;4.37;80.79
84020;BME280;74102;49.084;13.694;2023-12-14T00:03:41;92097.38;;;4.37;80.79
84020;BME280;74102;49.084;13.694;2023-12-14T00:06:08;92100.63;;;4.39;80.97
84020;BME280;74102;49.084;13.694;2023-12-14T00:08:33;92104.00;;;4.39;80.75
84020;BME280;74102;49.084;13.694;2023-12-14T00:11:04;92107.41;;;4.40;80.49
84020;BME280;74102;49.084;13.694;2023-12-14T00:13:29;92110.00;;;4.40;80.57
84020;BME280;74102;49.084;13.694;2023-12-14T00:15:54;92105.78;;;4.39;80.50
84020;BME280;74102;49.084;13.694;2023-12-14T00:18:20;92104.16;;;4.38;80.53
84020;BME280;74102;49.084;13.694;2023-12-14T00:20:45;92110.16;;;4.38;80.64
84020;BME280;74102;49.084;13.694;2023-12-14T00:23:10;92106.59;;;4.39;80.58
84020;BME280;74102;49.084;13.694;2023-12-14T00:25:36;92111.94;;;4.38;80.50
84020;BME280;74102;49.084;13.694;2023-12-14T00:28:01;92113.72;;;4.37;80.73
84020;BME280;74102;49.084;13.694;2023-12-14T00:30:26;92115.81;;;4.34;80.69
84020;BME280;74102;49.084;13.694;2023-12-14T00:32:52;92107.41;;;4.32;80.88
84020;BME280;74102;49.084;13.694;2023-12-14T00:35:17;92114.38;;;4.31;80.66
84020;BME280;74102;49.084;13.694;2023-12-14T00:37:43;92118.72;;;4.31;80.46
84020;BME280;74102;49.084;13.694;2023-12-14T00:40:08;92121.50;;;4.29;80.61
84020;BME280;74102;49.084;13.694;2023-12-14T00:42:34;92133.00;;;4.27;80.57
84020;BME280;74102;49.084;13.694;2023-12-14T00:44:59;92134.91;;;4.24;80.95
84020;BME280;74102;49.084;13.694;2023-12-14T00:47:24;92134.09;;;4.24;80.87
84020;BME280;74102;49.084;13.694;2023-12-14T00:49:50;92142.53;;;4.26;80.96
84020;BME280;74102;49.084;13.694;2023-12-14T00:52:15;92146.56;;;4.29;80.97
84020;BME280;74102;49.084;13.694;2023-12-14T00:54:40;92154.97;;;4.31;80.80
84020;BME280;74102;49.084;13.694;2023-12-14T00:57:06;92155.78;;;4.31;80.66
84020;BME280;74102;49.084;13.694;2023-12-14T00:59:31;92159.03;;;4.33;80.56
84020;BME280;74102;49.084;13.694;2023-12-14T01:01:57;92163.22;;;4.34;80.67
84020;BME280;74102;49.084;13.694;2023-12-14T01:04:22;92171.78;;;4.35;80.32
84020;BME280;74102;49.084;13.694;2023-12-14T01:06:47;92162.41;;;4.34;80.92
84020;BME280;74102;49.084;13.694;2023-12-14T01:09:13;92177.94;;;4.34;80.93
84020;BME280;74102;49.084;13.694;2023-12-14T01:11:38;92185.69;;;4.34;81.02
84020;BME280;74102;49.084;13.694;2023-12-14T01:14:03;92187.66;;;4.32;80.83
84020;BME280;74102;49.084;13.694;2023-12-14T01:16:29;92182.47;;;4.32;80.83
84020;BME280;74102;49.084;13.694;2023-12-14T01:18:55;92189.28;;;4.33;80.95
84020;BME280;74102;49.084;13.694;2023-12-14T01:21:20;92185.69;;;4.34;81.00
84020;BME280;74102;49.084;13.694;2023-12-14T01:23:45;92192.50;;;4.35;81.06
84020;BME280;74102;49.084;13.694;2023-12-14T01:26:11;92187.94;;;4.37;80.96
84020;BME280;74102;49.084;13.694;2023-12-14T01:28:36;92194.13;;;4.36;81.15
84020;BME280;74102;49.084;13.694;2023-12-14T01:31:02;92202.84;;;4.35;81.05
84020;BME280;74102;49.084;13.694;2023-12-14T01:33:27;92213.53;;;4.32;81.05
84020;BME280;74102;49.084;13.694;2023-12-14T01:35:52;92195.41;;;4.32;81.19
84020;BME280;74102;49.084;13.694;2023-12-14T01:38:18;92204.13;;;4.31;81.29
84020;BME280;74102;49.084;13.694;2023-12-14T01:40:43;92209.31;;;4.31;81.07
84020;BME280;74102;49.084;13.694;2023-12-14T01:43:09;92209.97;;;4.33;81.01
84020;BME280;74102;49.084;13.694;2023-12-14T01:45:36;92207.38;;;4.33;81.01
84020;BME280;74102;49.084;13.694;2023-12-14T01:48:01;92207.38;;;4.33;81.20
84020;BME280;74102;49.084;13.694;2023-12-14T01:50:27;92203.03;;;4.33;80.72
84020;BME280;74102;49.084;13.694;2023-12-14T01:52:52;92217.56;;;4.34;80.77
84020;BME280;74102;49.084;13.694;2023-12-14T01:55:17;92209.97;;;4.33;81.13
84020;BME280;74102;49.084;13.694;2023-12-14T01:57:43;92216.75;;;4.34;81.28
84020;BME280;74102;49.084;13.694;2023-12-14T02:00:18;92219.50;;;4.32;80.64
84020;BME280;74102;49.084;13.694;2023-12-14T02:02:47;92232.28;;;4.34;81.07
84020;BME280;74102;49.084;13.694;2023-12-14T02:05:12;92224.50;;;4.34;81.07
84020;BME280;74102;49.084;13.694;2023-12-14T02:07:38;92229.69;;;4.34;81.17
84020;BME280;74102;49.084;13.694;2023-12-14T02:10:03;92227.09;;;4.34;81.01
84020;BME280;74102;49.084;13.694;2023-12-14T02:12:29;92230.50;;;4.34;80.99
84020;BME280;74102;49.084;13.694;2023-12-14T02:14:56;92234.88;;;4.34;80.86
84020;BME280;74102;49.084;13.694;2023-12-14T02:17:21;92234.09;;;4.33;80.92
84020;BME280;74102;49.084;13.694;2023-12-14T02:19:47;92234.09;;;4.33;81.14
84020;BME280;74102;49.084;13.694;2023-12-14T02:22:12;92240.84;;;4.34;80.90
84020;BME280;74102;49.084;13.694;2023-12-14T02:24:37;92239.06;;;4.35;80.83
84020;BME280;74102;49.084;13.694;2023-12-14T02:27:03;92244.25;;;4.35;80.87
84020;BME280;74102;49.084;13.694;2023-12-14T02:29:28;92242.63;;;4.34;80.70
84020;BME280;74102;49.084;13.694;2023-12-14T02:31:53;92245.22;;;4.34;81.17
84020;BME280;74102;49.084;13.694;2023-12-14T02:34:19;92251.38;;;4.33;80.82
84020;BME280;74102;49.084;13.694;2023-12-14T02:36:46;92253.78;;;4.34;80.82
84020;BME280;74102;49.084;13.694;2023-12-14T02:39:11;92256.56;;;4.33;81.13
84020;BME280;74102;49.084;13.694;2023-12-14T02:41:36;92254.13;;;4.31;80.91
84020;BME280;74102;49.084;13.694;2023-12-14T02:44:02;92262.69;;;4.32;80.76
84020;BME280;74102;49.084;13.694;2023-12-14T02:46:27;92263.66;;;4.31;80.87
84020;BME280;74102;49.084;13.694;2023-12-14T02:48:52;92253.63;;;4.28;81.09
84020;BME280;74102;49.084;13.694;2023-12-14T02:51:18;92265.94;;;4.25;81.15
84020;BME280;74102;49.084;13.694;2023-12-14T02:53:43;92263.97;;;4.28;81.26
84020;BME280;74102;49.084;13.694;2023-12-14T02:56:09;92271.09;;;4.25;81.07
84020;BME280;74102;49.084;13.694;2023-12-14T02:58:36;92273.06;;;4.23;81.34
84020;BME280;74102;49.084;13.694;2023-12-14T03:01:01;92274.66;;;4.24;80.77
84020;BME280;74102;49.084;13.694;2023-12-14T03:03:26;92273.69;;;4.25;81.33
84020;BME280;74102;49.084;13.694;2023-12-14T03:05:54;92278.06;;;4.25;81.38
84020;BME280;74102;49.084;13.694;2023-12-14T03:08:19;92277.91;;;4.27;81.23
84020;BME280;74102;49.084;13.694;2023-12-14T03:10:45;92281.28;;;4.27;81.03
84020;BME280;74102;49.084;13.694;2023-12-14T03:13:10;92288.25;;;4.27;81.01
84020;BME280;74102;49.084;13.694;2023-12-14T03:15:36;92293.44;;;4.27;81.32
84020;BME280;74102;49.084;13.694;2023-12-14T03:18:01;92288.25;;;4.27;81.37
84020;BME280;74102;49.084;13.694;2023-12-14T03:20:29;92278.88;;;4.25;81.45
84020;BME280;74102;49.084;13.694;2023-12-14T03:22:54;92282.59;;;4.23;81.41
84020;BME280;74102;49.084;13.694;2023-12-14T03:25:19;92281.16;;;4.20;81.15
84020;BME280;74102;49.084;13.694;2023-12-14T03:27:45;92282.91;;;4.20;81.55
84020;BME280;74102;49.084;13.694;2023-12-14T03:30:10;92279.50;;;4.19;81.13
84020;BME280;74102;49.084;13.694;2023-12-14T03:32:36;92290.69;;;4.20;81.34
84020;BME280;74102;49.084;13.694;2023-12-14T03:35:02;92289.19;;;4.17;81.59
84020;BME280;74102;49.084;13.694;2023-12-14T03:37:27;92296.00;;;4.18;81.40
84020;BME280;74102;49.084;13.694;2023-12-14T03:39:52;92297.63;;;4.19;81.70
84020;BME280;74102;49.084;13.694;2023-12-14T03:42:18;92304.44;;;4.20;81.82
84020;BME280;74102;49.084;13.694;2023-12-14T03:44:43;92303.44;;;4.21;81.57
84020;BME280;74102;49.084;13.694;2023-12-14T03:47:08;92308.47;;;4.23;81.55
84020;BME280;74102;49.084;13.694;2023-12-14T03:49:39;92314.47;;;4.23;81.40
84020;BME280;74102;49.084;13.694;2023-12-14T03:52:05;92309.28;;;4.23;81.80
84020;BME280;74102;49.084;13.694;2023-12-14T03:54:30;92307.47;;;4.24;81.82
84020;BME280;74102;49.084;13.694;2023-12-14T03:56:56;92316.38;;;4.21;81.46
84020;BME280;74102;49.084;13.694;2023-12-14T03:59:21;92323.19;;;4.22;81.94
84020;BME280;74102;49.084;13.694;2023-12-14T04:01:47;92324.81;;;4.23;81.94
84020;BME280;74102;49.084;13.694;2023-12-14T04:04:12;92330.13;;;4.22;81.90
84020;BME280;74102;49.084;13.694;2023-12-14T04:06:37;92325.78;;;4.22;82.09
84020;BME280;74102;49.084;13.694;2023-12-14T04:09:03;92330.13;;;4.22;81.85
84020;BME280;74102;49.084;13.694;2023-12-14T04:11:28;92329.19;;;4.23;81.96
84020;BME280;74102;49.084;13.694;2023-12-14T04:13:53;92338.72;;;4.22;81.88
84020;BME280;74102;49.084;13.694;2023-12-14T04:16:20;92343.88;;;4.22;81.73
84020;BME280;74102;49.084;13.694;2023-12-14T04:18:46;92352.28;;;4.24;81.55
84020;BME280;74102;49.084;13.694;2023-12-14T04:21:11;92353.09;;;4.25;81.71
84020;BME280;74102;49.084;13.694;2023-12-14T04:23:36;92355.88;;;4.23;81.70
84020;BME280;74102;49.084;13.694;2023-12-14T04:26:02;92361.03;;;4.23;81.40
84020;BME280;74102;49.084;13.694;2023-12-14T04:28:27;92361.03;;;4.23;81.33
84020;BME280;74102;49.084;13.694;2023-12-14T04:30:53;92368.31;;;4.20;81.21
84020;BME280;74102;49.084;13.694;2023-12-14T04:33:18;92363.13;;;4.20;81.62
84020;BME280;74102;49.084;13.694;2023-12-14T04:35:43;92367.81;;;4.16;81.76
84020;BME280;74102;49.084;13.694;2023-12-14T04:38:09;92378.31;;;4.15;81.82
84020;BME280;74102;49.084;13.694;2023-12-14T04:40:34;92379.44;;;4.12;81.45
84020;BME280;74102;49.084;13.694;2023-12-14T04:42:59;92376.84;;;4.12;81.54
84020;BME280;74102;49.084;13.694;2023-12-14T04:45:25;92380.25;;;4.13;82.00
84020;BME280;74102;49.084;13.694;2023-12-14T04:47:50;92385.25;;;4.14;81.90
84020;BME280;74102;49.084;13.694;2023-12-14T04:50:16;92395.78;;;4.13;81.86
84020;BME280;74102;49.084;13.694;2023-12-14T04:52:42;92395.59;;;4.14;82.01
84020;BME280;74102;49.084;13.694;2023-12-14T04:55:08;92406.63;;;4.16;81.66
84020;BME280;74102;49.084;13.694;2023-12-14T04:57:34;92403.03;;;4.17;81.60
84020;BME280;74102;49.084;13.694;2023-12-14T04:59:59;92404.69;;;4.18;81.88
84020;BME280;74102;49.084;13.694;2023-12-14T05:02:25;92403.72;;;4.19;82.09
84020;BME280;74102;49.084;13.694;2023-12-14T05:04:50;92407.44;;;4.17;82.32
84020;BME280;74102;49.084;13.694;2023-12-14T05:07:15;92417.78;;;4.17;81.93
84020;BME280;74102;49.084;13.694;2023-12-14T05:09:41;92420.50;;;4.15;81.88
84020;BME280;74102;49.084;13.694;2023-12-14T05:12:06;92432.81;;;4.13;82.04
84020;BME280;74102;49.084;13.694;2023-12-14T05:14:32;92439.91;;;4.11;82.22
84020;BME280;74102;49.084;13.694;2023-12-14T05:16:57;92441.19;;;4.07;82.72
84020;BME280;74102;49.084;13.694;2023-12-14T05:19:23;92446.00;;;4.02;82.57
84020;BME280;74102;49.084;13.694;2023-12-14T05:21:48;92446.81;;;4.03;82.50
84020;BME280;74102;49.084;13.694;2023-12-14T05:24:15;92453.78;;;4.02;82.21
84020;BME280;74102;49.084;13.694;2023-12-14T05:26:40;92453.13;;;4.00;82.27
84020;BME280;74102;49.084;13.694;2023-12-14T05:29:05;92457.34;;;4.01;82.21
84020;BME280;74102;49.084;13.694;2023-12-14T05:31:31;92466.06;;;4.00;82.12
84020;BME280;74102;49.084;13.694;2023-12-14T05:33:56;92461.53;;;4.02;81.51
84020;BME280;74102;49.084;13.694;2023-12-14T05:36:22;92471.88;;;4.02;81.62
84020;BME280;74102;49.084;13.694;2023-12-14T05:38:47;92468.97;;;4.05;82.03
84020;BME280;74102;49.084;13.694;2023-12-14T05:41:12;92476.44;;;4.08;81.64
84020;BME280;74102;49.084;13.694;2023-12-14T05:43:38;92474.84;;;4.07;82.27
84020;BME280;74102;49.084;13.694;2023-12-14T05:46:03;92479.38;;;4.13;82.32
84020;BME280;74102;49.084;13.694;2023-12-14T05:48:29;92489.09;;;4.19;82.05
84020;BME280;74102;49.084;13.694;2023-12-14T05:50:56;92489.75;;;4.21;81.99
84020;BME280;74102;49.084;13.694;2023-12-14T05:53:21;92499.97;;;4.23;82.10
84020;BME280;74102;49.084;13.694;2023-12-14T05:55:47;92504.00;;;4.25;81.85
84020;BME280;74102;49.084;13.694;2023-12-14T05:58:12;92512.41;;;4.28;81.59
84020;BME280;74102;49.084;13.694;2023-12-14T06:00:38;92517.28;;;4.31;81.43
84020;BME280;74102;49.084;13.694;2023-12-14T06:03:05;92523.28;;;4.31;80.86
84020;BME280;74102;49.084;13.694;2023-12-14T06:05:30;92527.81;;;4.29;81.08
84020;BME280;74102;49.084;13.694;2023-12-14T06:07:56;92530.72;;;4.26;81.20
84020;BME280;74102;49.084;13.694;2023-12-14T06:10:21;92530.72;;;4.26;81.43
84020;BME280;74102;49.084;13.694;2023-12-14T06:12:47;92530.41;;;4.29;81.15
84020;BME280;74102;49.084;13.694;2023-12-14T06:15:13;92534.75;;;4.29;81.07
84020;BME280;74102;49.084;13.694;2023-12-14T06:17:38;92543.16;;;4.31;81.38
84020;BME280;74102;49.084;13.694;2023-12-14T06:20:06;92549.16;;;4.31;81.40
84020;BME280;74102;49.084;13.694;2023-12-14T06:22:37;92548.03;;;4.34;81.60
84020;BME280;74102;49.084;13.694;2023-12-14T06:25:02;92550.47;;;4.35;81.26
84020;BME280;74102;49.084;13.694;2023-12-14T06:27:28;92547.72;;;4.37;81.04
84020;BME280;74102;49.084;13.694;2023-12-14T06:29:54;92556.31;;;4.37;81.60
84020;BME280;74102;49.084;13.694;2023-12-14T06:32:19;92554.53;;;4.38;81.59
84020;BME280;74102;49.084;13.694;2023-12-14T06:34:45;92562.28;;;4.38;81.75
84020;BME280;74102;49.084;13.694;2023-12-14T06:37:10;92566.50;;;4.39;81.59
84020;BME280;74102;49.084;13.694;2023-12-14T06:39:35;92564.88;;;4.38;81.89
84020;BME280;74102;49.084;13.694;2023-12-14T06:42:01;92568.28;;;4.38;81.78
84020;BME280;74102;49.084;13.694;2023-12-14T06:44:26;92564.88;;;4.38;82.08
84020;BME280;74102;49.084;13.694;2023-12-14T06:46:53;92579.59;;;4.37;82.18
84020;BME280;74102;49.084;13.694;2023-12-14T06:49:18;92589.13;;;4.37;82.18
84020;BME280;74102;49.084;13.694;2023-12-14T06:51:44;92588.34;;;4.36;82.06
84020;BME280;74102;49.084;13.694;2023-12-14T06:54:10;92589.13;;;4.37;82.22
84020;BME280;74102;49.084;13.694;2023-12-14T06:56:36;92599.50;;;4.37;82.10
84020;BME280;74102;49.084;13.694;2023-12-14T06:59:02;92601.13;;;4.38;82.31
84020;BME280;74102;49.084;13.694;2023-12-14T07:01:28;92603.56;;;4.39;82.20
84020;BME280;74102;49.084;13.694;2023-12-14T07:03:53;92610.34;;;4.40;81.74
84020;BME280;74102;49.084;13.694;2023-12-14T07:06:19;92614.75;;;4.40;81.91
84020;BME280;74102;49.084;13.694;2023-12-14T07:08:45;92619.91;;;4.40;82.12
84020;BME280;74102;49.084;13.694;2023-12-14T07:11:11;92622.50;;;4.40;82.02
84020;BME280;74102;49.084;13.694;2023-12-14T07:13:37;92629.75;;;4.36;82.05
84020;BME280;74102;49.084;13.694;2023-12-14T07:16:08;92630.84;;;4.34;82.01
84020;BME280;74102;49.084;13.694;2023-12-14T07:18:37;92640.25;;;4.35;82.21
84020;BME280;74102;49.084;13.694;2023-12-14T07:21:04;92653.19;;;4.35;82.40
84020;BME280;74102;49.084;13.694;2023-12-14T07:23:29;92645.13;;;4.38;82.27
84020;BME280;74102;49.084;13.694;2023-12-14T07:25:55;92639.00;;;4.39;82.18
84020;BME280;74102;49.084;13.694;2023-12-14T07:28:21;92650.69;;;4.43;82.16
84020;BME280;74102;49.084;13.694;2023-12-14T07:30:46;92655.56;;;4.46;81.75
84020;BME280;74102;49.084;13.694;2023-12-14T07:33:12;92649.25;;;4.48;82.29
84020;BME280;74102;49.084;13.694;2023-12-14T07:35:37;92653.94;;;4.53;82.00
84020;BME280;74102;49.084;13.694;2023-12-14T07:38:03;92668.22;;;4.57;82.32
84020;BME280;74102;49.084;13.694;2023-12-14T07:40:29;92672.28;;;4.59;82.06
84020;BME280;74102;49.084;13.694;2023-12-14T07:42:54;92668.72;;;4.60;82.17
84020;BME280;74102;49.084;13.694;2023-12-14T07:45:19;92669.53;;;4.61;82.14
84020;BME280;74102;49.084;13.694;2023-12-14T07:47:45;92675.53;;;4.61;81.96
84020;BME280;74102;49.084;13.694;2023-12-14T07:50:11;92683.44;;;4.60;81.96
84020;BME280;74102;49.084;13.694;2023-12-14T07:52:37;92680.22;;;4.58;82.36
84020;BME280;74102;49.084;13.694;2023-12-14T07:55:03;92685.84;;;4.53;81.84
84020;BME280;74102;49.084;13.694;2023-12-14T07:57:28;92685.63;;;4.47;81.83
84020;BME280;74102;49.084;13.694;2023-12-14T07:59:54;92687.44;;;4.46;81.60
84020;BME280;74102;49.084;13.694;2023-12-14T08:02:19;92688.22;;;4.47;82.47
84020;BME280;74102;49.084;13.694;2023-12-14T08:04:44;92693.91;;;4.50;81.73
84020;BME280;74102;49.084;13.694;2023-12-14T08:07:10;92697.97;;;4.53;81.70
84020;BME280;74102;49.084;13.694;2023-12-14T08:09:35;92694.72;;;4.51;81.13
84020;BME280;74102;49.084;13.694;2023-12-14T08:12:00;92701.22;;;4.55;81.21
84020;BME280;74102;49.084;13.694;2023-12-14T08:14:26;92704.16;;;4.60;81.93
84020;BME280;74102;49.084;13.694;2023-12-14T08:16:51;92709.03;;;4.63;81.76
84020;BME280;74102;49.084;13.694;2023-12-14T08:19:17;92720.22;;;4.63;82.06
84020;BME280;74102;49.084;13.694;2023-12-14T08:21:43;92712.31;;;4.65;81.60
84020;BME280;74102;49.084;13.694;2023-12-14T08:24:08;92718.00;;;4.68;82.08
84020;BME280;74102;49.084;13.694;2023-12-14T08:26:33;92720.72;;;4.67;81.16
84020;BME280;74102;49.084;13.694;2023-12-14T08:28:59;92736.78;;;4.70;81.44
84020;BME280;74102;49.084;13.694;2023-12-14T08:31:24;92727.53;;;4.68;81.37
84020;BME280;74102;49.084;13.694;2023-12-14T08:33:50;92750.69;;;4.69;81.43
84020;BME280;74102;49.084;13.694;2023-12-14T08:36:17;92753.44;;;4.68;81.42
84020;BME280;74102;49.084;13.694;2023-12-14T08:38:43;92750.16;;;4.66;81.07
84020;BME280;74102;49.084;13.694;2023-12-14T08:41:12;92761.03;;;4.69;81.54
84020;BME280;74102;49.084;13.694;2023-12-14T08:43:38;92761.25;;;4.76;81.06
84020;BME280;74102;49.084;13.694;2023-12-14T08:46:03;92766.72;;;4.73;81.33
84020;BME280;74102;49.084;13.694;2023-12-14T08:48:29;92777.41;;;4.70;81.57
84020;BME280;74102;49.084;13.694;2023-12-14T08:50:54;92770.88;;;4.66;81.21
84020;BME280;74102;49.084;13.694;2023-12-14T08:53:20;92775.94;;;4.67;81.98
84020;BME280;74102;49.084;13.694;2023-12-14T08:55:45;92780.16;;;4.68;82.09
84020;BME280;74102;49.084;13.694;2023-12-14T08:58:11;92787.75;;;4.70;82.22
84020;BME280;74102;49.084;13.694;2023-12-14T09:00:37;92797.81;;;4.73;82.02
84020;BME280;74102;49.084;13.694;2023-12-14T09:03:03;92793.88;;;4.69;82.17
84020;BME280;74102;49.084;13.694;2023-12-14T09:05:29;92791.31;;;4.69;82.49
84020;BME280;74102;49.084;13.694;2023-12-14T09:07:54;92794.56;;;4.71;81.68
84020;BME280;74102;49.084;13.694;2023-12-14T09:10:22;92797.69;;;4.74;82.03
84020;BME280;74102;49.084;13.694;2023-12-14T09:12:47;92800.78;;;4.78;81.88
84020;BME280;74102;49.084;13.694;2023-12-14T09:15:13;92801.34;;;4.72;81.71
84020;BME280;74102;49.084;13.694;2023-12-14T09:17:41;92805.22;;;4.68;81.69
84020;BME280;74102;49.084;13.694;2023-12-14T09:20:08;92817.19;;;4.69;81.88
84020;BME280;74102;49.084;13.694;2023-12-14T09:22:33;92820.91;;;4.66;82.11
84020;BME280;74102;49.084;13.694;2023-12-14T09:24:58;92830.09;;;4.61;82.40
84020;BME280;74102;49.084;13.694;2023-12-14T09:27:24;92819.75;;;4.61;82.72
84020;BME280;74102;49.084;13.694;2023-12-14T09:29:49;92824.91;;;4.61;82.49
84020;BME280;74102;49.084;13.694;2023-12-14T09:32:15;92832.03;;;4.59;82.17
84020;BME280;74102;49.084;13.694;2023-12-14T09:34:42;92837.22;;;4.59;82.56
84020;BME280;74102;49.084;13.694;2023-12-14T09:37:08;92835.56;;;4.58;82.28
84020;BME280;74102;49.084;13.694;2023-12-14T09:39:33;92843.66;;;4.55;81.68
84020;BME280;74102;49.084;13.694;2023-12-14T09:42:03;92848.53;;;4.58;82.16
84020;BME280;74102;49.084;13.694;2023-12-14T09:44:29;92850.00;;;4.60;82.09
84020;BME280;74102;49.084;13.694;2023-12-14T09:46:55;92848.44;;;4.67;82.18
84020;BME280;74102;49.084;13.694;2023-12-14T09:49:21;92853.47;;;4.69;81.57
84020;BME280;74102;49.084;13.694;2023-12-14T09:51:48;92854.28;;;4.69;81.79
84020;BME280;74102;49.084;13.694;2023-12-14T09:54:14;92853.97;;;4.72;81.37
84020;BME280;74102;49.084;13.694;2023-12-14T09:56:47;92855.19;;;4.78;81.52
84020;BME280;74102;49.084;13.694;2023-12-14T09:59:12;92862.34;;;4.84;81.62
84020;BME280;74102;49.084;13.694;2023-12-14T10:01:38;92862.34;;;4.84;80.81
84020;BME280;74102;49.084;13.694;2023-12-14T10:04:14;92852.94;;;4.83;80.85
84020;BME280;74102;49.084;13.694;2023-12-14T10:06:41;92865.59;;;4.86;79.94
84020;BME280;74102;49.084;13.694;2023-12-14T10:09:08;92858.19;;;4.91;79.81
84020;BME280;74102;49.084;13.694;2023-12-14T10:11:40;92861.34;;;5.03;79.36
84020;BME280;74102;49.084;13.694;2023-12-14T10:14:22;92867.47;;;5.19;79.53
84020;BME280;74102;49.084;13.694;2023-12-14T10:16:50;92872.75;;;5.36;78.92
84020;BME280;74102;49.084;13.694;2023-12-14T10:19:17;92871.63;;;5.38;78.67
84020;BME280;74102;49.084;13.694;2023-12-14T10:21:43;92886.59;;;5.44;79.17
84020;BME280;74102;49.084;13.694;2023-12-14T10:24:09;92877.84;;;5.45;77.61
84020;BME280;74102;49.084;13.694;2023-12-14T10:26:34;92886.78;;;5.51;77.78
84020;BME280;74102;49.084;13.694;2023-12-14T10:29:01;92899.09;;;5.49;77.25
84020;BME280;74102;49.084;13.694;2023-12-14T10:31:30;92896.84;;;5.54;76.98
84020;BME280;74102;49.084;13.694;2023-12-14T10:33:56;92890.34;;;5.50;76.65
84020;BME280;74102;49.084;13.694;2023-12-14T10:36:22;92891.34;;;5.57;76.80
84020;BME280;74102;49.084;13.694;2023-12-14T10:38:54;92898.81;;;5.60;76.57
84020;BME280;74102;49.084;13.694;2023-12-14T10:41:21;92897.25;;;5.67;75.96
84020;BME280;74102;49.084;13.694;2023-12-14T10:43:48;92905.47;;;5.62;74.64
84020;BME280;74102;49.084;13.694;2023-12-14T10:46:15;92903.72;;;5.63;75.38
84020;BME280;74102;49.084;13.694;2023-12-14T10:48:43;92906.00;;;5.66;75.13
84020;BME280;74102;49.084;13.694;2023-12-14T10:51:14;92906.00;;;5.66;74.32
84020;BME280;74102;49.084;13.694;2023-12-14T10:53:40;92906.38;;;5.71;74.00
84020;BME280;74102;49.084;13.694;2023-12-14T10:56:10;92898.59;;;5.71;74.35
84020;BME280;74102;49.084;13.694;2023-12-14T10:58:53;92903.16;;;5.77;75.61
84020;BME280;74102;49.084;13.694;2023-12-14T11:01:21;92905.44;;;5.80;75.10
84020;BME280;74102;49.084;13.694;2023-12-14T11:03:48;92910.31;;;5.83;74.77
84020;BME280;74102;49.084;13.694;2023-12-14T11:06:33;92918.00;;;5.67;73.63
84020;BME280;74102;49.084;13.694;2023-12-14T11:09:04;92914.88;;;5.55;73.94
84020;BME280;74102;49.084;13.694;2023-12-14T11:14:18;92923.19;;;5.41;75.50
84020;BME280;74102;49.084;13.694;2023-12-14T11:16:44;92925.56;;;5.35;76.12
84020;BME280;74102;49.084;13.694;2023-12-14T11:19:31;92945.28;;;5.27;75.95
84020;BME280;74102;49.084;13.694;2023-12-14T11:22:11;92939.75;;;5.22;75.87
84020;BME280;74102;49.084;13.694;2023-12-14T11:24:41;92944.72;;;5.16;76.30
84020;BME280;74102;49.084;13.694;2023-12-14T11:27:08;92948.94;;;5.17;75.81
84020;BME280;74102;49.084;13.694;2023-12-14T11:29:36;92947.31;;;5.16;76.34
84020;BME280;74102;49.084;13.694;2023-12-14T11:32:01;92937.97;;;5.05;76.67
84020;BME280;74102;49.084;13.694;2023-12-14T11:34:27;92947.00;;;5.01;76.94
84020;BME280;74102;49.084;13.694;2023-12-14T11:36:54;92942.63;;;5.02;76.92
84020;BME280;74102;49.084;13.694;2023-12-14T11:39:20;92948.34;;;5.05;77.28
84020;BME280;74102;49.084;13.694;2023-12-14T11:42:05;92955.69;;;5.10;77.06
84020;BME280;74102;49.084;13.694;2023-12-14T11:44:35;92950.03;;;5.14;77.52
84020;BME280;74102;49.084;13.694;2023-12-14T11:47:02;92947.22;;;5.25;77.55
84020;BME280;74102;49.084;13.694;2023-12-14T11:49:27;92946.44;;;5.33;77.80
84020;BME280;74102;49.084;13.694;2023-12-14T11:51:54;92955.72;;;5.36;77.05
84020;BME280;74102;49.084;13.694;2023-12-14T11:54:20;92945.41;;;5.44;76.89
84020;BME280;74102;49.084;13.694;2023-12-14T11:56:47;92953.91;;;5.54;76.74
84020;BME280;74102;49.084;13.694;2023-12-14T11:59:14;92950.69;;;5.60;76.51
84020;BME280;74102;49.084;13.694;2023-12-14T12:02:01;92956.75;;;5.68;76.36
84020;BME280;74102;49.084;13.694;2023-12-14T12:04:28;92958.91;;;5.73;76.54
84020;BME280;74102;49.084;13.694;2023-12-14T12:07:01;92974.03;;;5.60;76.35
84020;BME280;74102;49.084;13.694;2023-12-14T12:11:59;92967.09;;;5.43;77.08
84020;BME280;74102;49.084;13.694;2023-12-14T12:14:24;92964.50;;;5.43;78.28
84020;BME280;74102;49.084;13.694;2023-12-14T12:16:49;92979.13;;;5.44;76.84
84020;BME280;74102;49.084;13.694;2023-12-14T12:19:18;92981.75;;;5.26;76.84
84020;BME280;74102;49.084;13.694;2023-12-14T12:21:43;92977.66;;;5.23;77.26
84020;BME280;74102;49.084;13.694;2023-12-14T12:24:08;92979.88;;;5.18;77.69
84020;BME280;74102;49.084;13.694;2023-12-14T12:26:34;92984.84;;;5.12;77.41
84020;BME280;74102;49.084;13.694;2023-12-14T12:28:59;92989.72;;;5.15;77.56
84020;BME280;74102;49.084;13.694;2023-12-14T12:31:24;92990.25;;;5.18;77.16
84020;BME280;74102;49.084;13.694;2023-12-14T12:33:50;92990.59;;;5.23;77.23
84020;BME280;74102;49.084;13.694;2023-12-14T12:36:15;93001.28;;;5.38;77.33
84020;BME280;74102;49.084;13.694;2023-12-14T12:38:40;93000.25;;;5.49;77.00
84020;BME280;74102;49.084;13.694;2023-12-14T12:41:06;92999.03;;;5.61;76.17
84020;BME280;74102;49.084;13.694;2023-12-14T12:43:31;92995.53;;;5.70;76.38
84020;BME280;74102;49.084;13.694;2023-12-14T12:45:56;93001.75;;;5.77;76.76
84020;BME280;74102;49.084;13.694;2023-12-14T12:48:23;93003.19;;;5.71;75.39
84020;BME280;74102;49.084;13.694;2023-12-14T12:50:49;93001.03;;;5.67;75.75
84020;BME280;74102;49.084;13.694;2023-12-14T12:53:14;93005.19;;;5.60;75.69
84020;BME280;74102;49.084;13.694;2023-12-14T12:55:39;93007.78;;;5.60;75.28
84020;BME280;74102;49.084;13.694;2023-12-14T12:58:05;93010.22;;;5.61;75.19
84020;BME280;74102;49.084;13.694;2023-12-14T13:00:32;93010.38;;;5.60;75.23